createdAt,value
2017-12-30T00:00:17.236Z,-0.82
2017-12-30T00:01:17.226Z,-0.8
2017-12-30T00:02:17.207Z,-0.82
2017-12-30T00:03:17.191Z,-0.86
2017-12-30T00:04:17.183Z,-0.91
2017-12-30T00:05:16.896Z,-0.95
2017-12-30T00:06:16.883Z,-0.82
2017-12-30T00:07:17.116Z,-0.79
2017-12-30T00:08:17.094Z,-0.86
2017-12-30T00:09:17.089Z,-0.85
2017-12-30T00:10:17.063Z,-0.89
2017-12-30T00:11:17.070Z,-0.83
2017-12-30T00:12:17.040Z,-0.83
2017-12-30T00:13:17.016Z,-0.82
2017-12-30T00:14:17.047Z,-0.85
2017-12-30T00:15:16.740Z,-0.82
2017-12-30T00:16:16.977Z,-0.83
2017-12-30T00:17:16.965Z,-0.85
2017-12-30T00:18:16.928Z,-0.92
2017-12-30T00:19:16.921Z,-0.92
2017-12-30T00:20:16.893Z,-0.78
2017-12-30T00:21:16.624Z,-0.83
2017-12-30T00:22:16.858Z,-0.83
2017-12-30T00:23:16.867Z,-0.85
2017-12-30T00:24:16.570Z,-0.82
2017-12-30T00:25:16.813Z,-0.78
2017-12-30T00:26:16.805Z,-0.76
2017-12-30T00:27:16.528Z,-0.83
2017-12-30T00:28:16.758Z,-0.86
2017-12-30T00:29:16.524Z,-0.83
2017-12-30T00:30:16.713Z,-0.82
2017-12-30T00:31:16.700Z,-0.78
2017-12-30T00:32:16.690Z,-0.8
2017-12-30T00:33:16.672Z,-0.82
2017-12-30T00:34:16.662Z,-0.86
2017-12-30T00:35:16.645Z,-0.83
2017-12-30T00:36:16.652Z,-0.82
2017-12-30T00:37:16.608Z,-0.86
2017-12-30T00:38:16.582Z,-0.83
2017-12-30T00:39:16.570Z,-0.79
2017-12-30T00:40:16.603Z,-0.83
2017-12-30T00:41:16.529Z,-0.83
2017-12-30T00:42:16.526Z,-0.8
2017-12-30T00:43:16.501Z,-0.76
2017-12-30T00:44:16.224Z,-0.78
2017-12-30T00:45:16.215Z,-0.83
2017-12-30T00:46:16.450Z,-0.82
2017-12-30T00:47:16.425Z,-0.78
2017-12-30T00:48:16.421Z,-0.76
2017-12-30T00:49:16.139Z,-0.72
2017-12-30T00:50:16.381Z,-0.85
2017-12-30T00:51:16.385Z,-0.78
2017-12-30T00:52:16.093Z,-0.75
2017-12-30T00:53:16.321Z,-0.83
2017-12-30T00:54:16.305Z,-0.76
2017-12-30T00:55:15.771Z,-0.69
2017-12-30T00:56:16.277Z,-0.69
2017-12-30T00:57:16.269Z,-0.7
2017-12-30T00:58:16.242Z,-0.72
2017-12-30T00:59:16.219Z,-0.7
2017-12-30T01:00:16.207Z,-0.65
2017-12-30T01:01:16.189Z,-0.69
2017-12-30T01:02:16.173Z,-0.67
2017-12-30T01:03:16.214Z,-0.65
2017-12-30T01:04:16.140Z,-0.65
2017-12-30T01:05:15.859Z,-0.58
2017-12-30T01:06:15.843Z,-0.58
2017-12-30T01:07:16.097Z,-0.62
2017-12-30T01:08:15.807Z,-0.57
2017-12-30T01:09:15.797Z,-0.61
2017-12-30T01:10:16.046Z,-0.67
2017-12-30T01:11:16.007Z,-0.57
2017-12-30T01:12:15.989Z,-0.54
2017-12-30T01:13:15.985Z,-0.67
2017-12-30T01:14:15.703Z,-0.61
2017-12-30T01:15:15.946Z,-0.61
2017-12-30T01:16:15.937Z,-0.55
2017-12-30T01:17:15.923Z,-0.58
2017-12-30T01:18:15.897Z,-0.6
2017-12-30T01:19:15.621Z,-0.52
2017-12-30T01:20:15.869Z,-0.51
2017-12-30T01:21:15.847Z,-0.55
2017-12-30T01:22:15.827Z,-0.6
2017-12-30T01:23:15.820Z,-0.51
2017-12-30T01:24:15.792Z,-0.52
2017-12-30T01:25:15.793Z,-0.44
2017-12-30T01:26:15.777Z,-0.55
2017-12-30T01:27:15.733Z,-0.46
2017-12-30T01:28:15.718Z,-0.54
2017-12-30T01:29:15.452Z,-0.51
2017-12-30T01:30:15.431Z,-0.49
2017-12-30T01:31:15.673Z,-0.4
2017-12-30T01:32:15.661Z,-0.43
2017-12-30T01:33:15.376Z,-0.49
2017-12-30T01:34:15.622Z,-0.42
2017-12-30T01:35:15.596Z,-0.44
2017-12-30T01:36:15.611Z,-0.37
2017-12-30T01:37:15.576Z,-0.4
2017-12-30T01:38:15.563Z,-0.29
2017-12-30T01:39:15.532Z,-0.37
2017-12-30T01:40:15.269Z,-0.4
2017-12-30T01:41:15.507Z,-0.37
2017-12-30T01:42:15.487Z,-0.33
2017-12-30T01:43:15.478Z,-0.34
2017-12-30T01:44:15.447Z,-0.33
2017-12-30T01:45:15.458Z,-0.31
2017-12-30T01:46:15.433Z,-0.29
2017-12-30T01:47:15.396Z,-0.29
2017-12-30T01:48:15.131Z,-0.26
2017-12-30T01:49:15.379Z,-0.23
2017-12-30T01:50:15.349Z,-0.23
2017-12-30T01:51:15.321Z,-0.29
2017-12-30T01:52:15.321Z,-0.33
2017-12-30T01:53:15.300Z,-0.26
2017-12-30T01:54:15.028Z,-0.29
2017-12-30T01:55:15.267Z,-0.29
2017-12-30T01:56:14.999Z,-0.22
2017-12-30T01:57:15.229Z,-0.21
2017-12-30T01:58:14.692Z,-0.29
2017-12-30T01:59:15.205Z,-0.29
2017-12-30T02:00:14.920Z,-0.22
2017-12-30T02:01:15.154Z,-0.15
2017-12-30T02:02:15.142Z,-0.16
2017-12-30T02:03:15.120Z,-0.18
2017-12-30T02:04:14.867Z,-0.16
2017-12-30T02:05:14.829Z,-0.11
2017-12-30T02:06:15.080Z,-0.11
2017-12-30T02:07:15.052Z,-0.15
2017-12-30T02:08:15.050Z,-0.15
2017-12-30T02:09:14.762Z,-0.14
2017-12-30T02:10:15.004Z,-0.1
2017-12-30T02:11:15.020Z,-0.05
2017-12-30T02:12:14.970Z,-0.03
2017-12-30T02:13:14.956Z,-0.07
2017-12-30T02:14:14.422Z,-0.01
2017-12-30T02:15:14.668Z,0
2017-12-30T02:16:14.650Z,0.08
2017-12-30T02:17:14.886Z,0.04
2017-12-30T02:18:14.866Z,0.04
2017-12-30T02:19:14.612Z,0.13
2017-12-30T02:20:14.576Z,0.21
2017-12-30T02:21:14.816Z,0.28
2017-12-30T02:22:14.856Z,0.23
2017-12-30T02:23:14.798Z,0.32
2017-12-30T02:24:14.782Z,0.31
2017-12-30T02:25:14.749Z,0.35
2017-12-30T02:26:14.740Z,0.41
2017-12-30T02:27:14.460Z,0.41
2017-12-30T02:28:14.698Z,0.44
2017-12-30T02:29:14.699Z,0.5
2017-12-30T02:30:14.672Z,0.6
2017-12-30T02:31:14.658Z,0.55
2017-12-30T02:32:14.125Z,0.75
2017-12-30T02:33:14.614Z,0.7
2017-12-30T02:34:14.620Z,0.66
2017-12-30T02:35:14.344Z,0.76
2017-12-30T02:36:14.568Z,0.83
2017-12-30T02:37:14.567Z,0.8
2017-12-30T02:38:14.535Z,0.78
2017-12-30T02:39:14.529Z,0.86
2017-12-30T02:40:14.258Z,0.91
2017-12-30T02:41:14.502Z,0.86
2017-12-30T02:42:14.472Z,0.72
2017-12-30T02:43:14.452Z,0.86
2017-12-30T02:44:14.438Z,0.88
2017-12-30T02:45:14.431Z,0.86
2017-12-30T02:46:14.407Z,0.93
2017-12-30T02:47:14.396Z,0.91
2017-12-30T02:48:14.369Z,0.97
2017-12-30T02:49:14.361Z,0.96
2017-12-30T02:50:13.824Z,0.96
2017-12-30T02:51:14.324Z,0.98
2017-12-30T02:52:14.306Z,0.98
2017-12-30T02:53:14.289Z,0.98
2017-12-30T02:54:14.044Z,0.97
2017-12-30T02:55:14.277Z,1.05
2017-12-30T02:56:14.259Z,1.02
2017-12-30T02:57:14.233Z,1.04
2017-12-30T02:58:14.216Z,1.09
2017-12-30T02:59:14.199Z,1.08
2017-12-30T03:00:14.173Z,1.12
2017-12-30T03:01:14.175Z,1.04
2017-12-30T03:02:14.149Z,1
2017-12-30T03:03:14.148Z,0.97
2017-12-30T03:04:14.109Z,0.97
2017-12-30T03:05:14.102Z,0.98
2017-12-30T03:06:13.829Z,0.97
2017-12-30T03:07:13.805Z,0.93
2017-12-30T03:08:13.788Z,0.97
2017-12-30T03:09:13.794Z,0.96
2017-12-30T03:10:13.767Z,0.86
2017-12-30T03:11:13.756Z,0.88
2017-12-30T03:12:13.980Z,0.86
2017-12-30T03:13:13.964Z,0.93
2017-12-30T03:14:13.950Z,0.8
2017-12-30T03:15:13.945Z,0.93
2017-12-30T03:16:13.689Z,0.86
2017-12-30T03:17:13.908Z,0.87
2017-12-30T03:18:13.881Z,0.7
2017-12-30T03:19:13.891Z,0.8
2017-12-30T03:20:13.604Z,0.76
2017-12-30T03:21:13.849Z,0.8
2017-12-30T03:22:13.828Z,0.76
2017-12-30T03:23:13.801Z,0.75
2017-12-30T03:24:13.790Z,0.75
2017-12-30T03:25:13.786Z,0.83
2017-12-30T03:26:13.772Z,0.78
2017-12-30T03:27:13.483Z,0.72
2017-12-30T03:28:13.720Z,0.78
2017-12-30T03:29:13.457Z,0.84
2017-12-30T03:30:13.708Z,0.73
2017-12-30T03:31:13.694Z,0.83
2017-12-30T03:32:13.655Z,0.75
2017-12-30T03:33:13.648Z,0.75
2017-12-30T03:34:13.638Z,0.88
2017-12-30T03:35:13.623Z,0.91
2017-12-30T03:36:13.595Z,0.88
2017-12-30T03:37:13.582Z,0.9
2017-12-30T03:38:13.563Z,0.93
2017-12-30T03:39:13.541Z,1.02
2017-12-30T03:40:13.530Z,1.02
2017-12-30T03:41:13.526Z,0.98
2017-12-30T03:42:13.263Z,1.05
2017-12-30T03:43:13.481Z,1.11
2017-12-30T03:44:13.488Z,1.15
2017-12-30T03:45:13.448Z,1.24
2017-12-30T03:46:13.437Z,1.32
2017-12-30T03:47:12.899Z,1.27
2017-12-30T03:48:13.397Z,1.29
2017-12-30T03:49:13.386Z,1.29
2017-12-30T03:50:13.370Z,1.3
2017-12-30T03:51:13.100Z,1.44
2017-12-30T03:52:13.330Z,1.44
2017-12-30T03:53:13.315Z,1.44
2017-12-30T03:54:13.313Z,1.4
2017-12-30T03:55:13.285Z,1.52
2017-12-30T03:56:13.267Z,1.48
2017-12-30T03:57:12.994Z,1.51
2017-12-30T03:58:13.241Z,1.59
2017-12-30T03:59:13.229Z,1.59
2017-12-30T04:00:12.946Z,1.54
2017-12-30T04:01:13.186Z,1.62
2017-12-30T04:02:13.177Z,1.6
2017-12-30T04:03:13.166Z,1.7
2017-12-30T04:04:12.890Z,1.73
2017-12-30T04:05:13.143Z,1.79
2017-12-30T04:06:13.125Z,1.77
2017-12-30T04:07:12.842Z,1.73
2017-12-30T04:08:13.088Z,1.8
2017-12-30T04:09:12.561Z,1.83
2017-12-30T04:10:13.055Z,1.81
2017-12-30T04:11:13.044Z,1.76
2017-12-30T04:12:13.025Z,1.79
2017-12-30T04:13:13.011Z,1.87
2017-12-30T04:14:12.735Z,1.83
2017-12-30T04:15:12.982Z,1.98
2017-12-30T04:16:12.956Z,1.9
2017-12-30T04:17:12.947Z,1.9
2017-12-30T04:18:12.919Z,1.95
2017-12-30T04:19:12.665Z,2.02
2017-12-30T04:20:12.643Z,2.02
2017-12-30T04:21:12.625Z,2.02
2017-12-30T04:22:12.858Z,2.09
2017-12-30T04:23:12.843Z,2.05
2017-12-30T04:24:12.827Z,2.16
2017-12-30T04:25:12.558Z,2.12
2017-12-30T04:26:12.806Z,2.2
2017-12-30T04:27:12.525Z,2.17
2017-12-30T04:28:12.794Z,2.12
2017-12-30T04:29:12.749Z,2.23
2017-12-30T04:30:12.484Z,2.14
2017-12-30T04:31:12.718Z,2.21
2017-12-30T04:32:12.711Z,2.2
2017-12-30T04:33:12.706Z,2.24
2017-12-30T04:34:12.427Z,2.16
2017-12-30T04:35:12.664Z,2.28
2017-12-30T04:36:12.651Z,2.25
2017-12-30T04:37:12.632Z,2.21
2017-12-30T04:38:12.355Z,2.24
2017-12-30T04:39:12.606Z,2.25
2017-12-30T04:40:12.344Z,2.31
2017-12-30T04:41:12.577Z,2.3
2017-12-30T04:42:12.561Z,2.17
2017-12-30T04:43:12.545Z,2.31
2017-12-30T04:44:12.262Z,2.36
2017-12-30T04:45:12.505Z,2.27
2017-12-30T04:46:11.977Z,2.23
2017-12-30T04:47:12.478Z,2.31
2017-12-30T04:48:12.466Z,2.39
2017-12-30T04:49:12.451Z,2.34
2017-12-30T04:50:12.438Z,2.35
2017-12-30T04:51:12.422Z,2.34
2017-12-30T04:52:12.401Z,2.27
2017-12-30T04:53:12.397Z,2.35
2017-12-30T04:54:12.384Z,2.28
2017-12-30T04:55:12.363Z,2.31
2017-12-30T04:56:12.340Z,2.31
2017-12-30T04:57:12.081Z,2.2
2017-12-30T04:58:12.324Z,2.28
2017-12-30T04:59:12.313Z,2.28
2017-12-30T05:00:12.022Z,2.43
2017-12-30T05:01:12.263Z,2.41
2017-12-30T05:02:12.248Z,2.35
2017-12-30T05:03:12.231Z,2.38
2017-12-30T05:04:11.964Z,2.41
2017-12-30T05:05:12.208Z,2.53
2017-12-30T05:06:12.195Z,2.46
2017-12-30T05:07:12.169Z,2.48
2017-12-30T05:08:11.898Z,2.54
2017-12-30T05:09:11.904Z,2.52
2017-12-30T05:10:12.130Z,2.52
2017-12-30T05:11:12.122Z,2.57
2017-12-30T05:12:12.104Z,2.56
2017-12-30T05:13:11.822Z,2.63
2017-12-30T05:14:12.071Z,2.59
2017-12-30T05:15:12.047Z,2.54
2017-12-30T05:16:12.046Z,2.53
2017-12-30T05:17:11.768Z,2.6
2017-12-30T05:18:11.747Z,2.54
2017-12-30T05:19:11.993Z,2.49
2017-12-30T05:20:11.982Z,2.67
2017-12-30T05:21:11.969Z,2.56
2017-12-30T05:22:11.940Z,2.53
2017-12-30T05:23:11.415Z,2.56
2017-12-30T05:24:11.921Z,2.57
2017-12-30T05:25:11.917Z,2.59
2017-12-30T05:26:11.637Z,2.53
2017-12-30T05:27:11.865Z,2.54
2017-12-30T05:28:11.851Z,2.49
2017-12-30T05:29:11.591Z,2.48
2017-12-30T05:30:11.838Z,2.48
2017-12-30T05:31:11.827Z,2.49
2017-12-30T05:32:11.542Z,2.39
2017-12-30T05:33:11.522Z,2.43
2017-12-30T05:34:11.769Z,2.31
2017-12-30T05:35:11.754Z,2.31
2017-12-30T05:36:11.475Z,2.38
2017-12-30T05:37:11.723Z,2.28
2017-12-30T05:38:11.465Z,2.27
2017-12-30T05:39:11.684Z,2.16
2017-12-30T05:40:11.681Z,2.2
2017-12-30T05:41:11.401Z,2.09
2017-12-30T05:42:11.648Z,2.17
2017-12-30T05:43:11.383Z,2.18
2017-12-30T05:44:11.610Z,2.16
2017-12-30T05:45:11.610Z,2.14
2017-12-30T05:46:11.333Z,2.23
2017-12-30T05:47:11.572Z,2.17
2017-12-30T05:48:11.559Z,2.35
2017-12-30T05:49:11.536Z,2.35
2017-12-30T05:50:11.527Z,2.34
2017-12-30T05:51:11.508Z,2.45
2017-12-30T05:52:11.500Z,2.42
2017-12-30T05:53:11.224Z,2.39
2017-12-30T05:54:11.456Z,2.42
2017-12-30T05:55:10.932Z,2.39
2017-12-30T05:56:11.174Z,2.45
2017-12-30T05:57:11.414Z,2.49
2017-12-30T05:58:11.403Z,2.52
2017-12-30T05:59:11.378Z,2.53
2017-12-30T06:00:11.367Z,2.63
2017-12-30T06:01:11.374Z,2.59
2017-12-30T06:02:11.342Z,2.57
2017-12-30T06:03:11.320Z,2.56
2017-12-30T06:04:10.796Z,2.61
2017-12-30T06:05:11.289Z,2.61
2017-12-30T06:06:11.271Z,2.57
2017-12-30T06:07:11.274Z,2.6
2017-12-30T06:08:11.261Z,2.72
2017-12-30T06:09:11.237Z,2.72
2017-12-30T06:10:11.222Z,2.71
2017-12-30T06:11:11.211Z,2.72
2017-12-30T06:12:10.945Z,2.71
2017-12-30T06:13:11.170Z,2.71
2017-12-30T06:14:10.908Z,2.74
2017-12-30T06:15:11.144Z,2.71
2017-12-30T06:16:11.127Z,2.77
2017-12-30T06:17:11.108Z,2.74
2017-12-30T06:18:11.092Z,2.72
2017-12-30T06:19:11.089Z,2.67
2017-12-30T06:20:11.070Z,2.67
2017-12-30T06:21:11.054Z,2.77
2017-12-30T06:22:10.785Z,2.71
2017-12-30T06:23:11.032Z,2.75
2017-12-30T06:24:11.003Z,2.69
2017-12-30T06:25:10.990Z,2.69
2017-12-30T06:26:10.985Z,2.72
2017-12-30T06:27:10.713Z,2.66
2017-12-30T06:28:10.968Z,2.82
2017-12-30T06:29:10.426Z,2.82
2017-12-30T06:30:10.402Z,2.85
2017-12-30T06:31:10.915Z,2.84
2017-12-30T06:32:10.901Z,2.87
2017-12-30T06:33:10.622Z,2.82
2017-12-30T06:34:10.609Z,2.84
2017-12-30T06:35:10.855Z,2.82
2017-12-30T06:36:10.833Z,2.78
2017-12-30T06:37:10.824Z,2.92
2017-12-30T06:38:10.805Z,2.87
2017-12-30T06:39:10.797Z,2.81
2017-12-30T06:40:10.509Z,2.84
2017-12-30T06:41:10.759Z,2.89
2017-12-30T06:42:10.757Z,2.85
2017-12-30T06:43:10.720Z,2.9
2017-12-30T06:44:10.719Z,3
2017-12-30T06:45:10.442Z,2.92
2017-12-30T06:46:10.684Z,2.95
2017-12-30T06:47:10.681Z,2.97
2017-12-30T06:48:10.651Z,3
2017-12-30T06:49:10.629Z,2.97
2017-12-30T06:50:10.639Z,2.99
2017-12-30T06:51:10.601Z,2.97
2017-12-30T06:52:10.593Z,2.95
2017-12-30T06:53:10.582Z,2.93
2017-12-30T06:54:10.568Z,3.06
2017-12-30T06:55:10.552Z,2.93
2017-12-30T06:56:10.281Z,3.03
2017-12-30T06:57:10.537Z,3.05
2017-12-30T06:58:10.500Z,3.03
2017-12-30T06:59:10.483Z,3.1
2017-12-30T07:00:10.476Z,3.11
2017-12-30T07:01:10.463Z,3.2
2017-12-30T07:02:10.202Z,3.23
2017-12-30T07:03:10.184Z,3.28
2017-12-30T07:04:10.422Z,3.28
2017-12-30T07:05:10.398Z,3.29
2017-12-30T07:06:10.180Z,3.29
2017-12-30T07:07:10.366Z,3.35
2017-12-30T07:08:10.360Z,3.31
2017-12-30T07:09:10.348Z,3.36
2017-12-30T07:10:10.324Z,3.35
2017-12-30T07:11:10.070Z,3.42
2017-12-30T07:12:10.300Z,3.39
2017-12-30T07:13:10.297Z,3.33
2017-12-30T07:14:10.027Z,3.45
2017-12-30T07:15:10.269Z,3.33
2017-12-30T07:16:10.294Z,3.52
2017-12-30T07:17:10.238Z,3.48
2017-12-30T07:18:10.208Z,3.43
2017-12-30T07:19:09.946Z,3.57
2017-12-30T07:20:10.192Z,3.52
2017-12-30T07:21:10.163Z,3.58
2017-12-30T07:22:10.152Z,3.5
2017-12-30T07:23:10.181Z,3.65
2017-12-30T07:24:09.886Z,3.61
2017-12-30T07:25:10.110Z,3.62
2017-12-30T07:26:10.101Z,3.66
2017-12-30T07:27:10.087Z,3.65
2017-12-30T07:28:10.071Z,3.68
2017-12-30T07:29:09.815Z,3.69
2017-12-30T07:30:10.045Z,3.76
2017-12-30T07:31:10.019Z,3.75
2017-12-30T07:32:10.031Z,3.76
2017-12-30T07:33:10.011Z,3.8
2017-12-30T07:34:09.980Z,3.73
2017-12-30T07:35:09.969Z,3.93
2017-12-30T07:36:09.692Z,3.9
2017-12-30T07:37:09.939Z,3.91
2017-12-30T07:38:09.664Z,3.97
2017-12-30T07:39:09.914Z,3.91
2017-12-30T07:40:09.898Z,3.97
2017-12-30T07:41:09.884Z,3.91
2017-12-30T07:42:09.867Z,3.98
2017-12-30T07:43:09.856Z,3.9
2017-12-30T07:44:09.856Z,3.94
2017-12-30T07:45:09.825Z,4
2017-12-30T07:46:09.814Z,3.91
2017-12-30T07:47:09.801Z,4
2017-12-30T07:48:09.535Z,4.02
2017-12-30T07:49:09.779Z,3.91
2017-12-30T07:50:09.761Z,3.94
2017-12-30T07:51:09.750Z,3.97
2017-12-30T07:52:09.735Z,3.94
2017-12-30T07:53:09.714Z,3.96
2017-12-30T07:54:09.455Z,3.91
2017-12-30T07:55:09.678Z,3.93
2017-12-30T07:56:09.407Z,3.91
2017-12-30T07:57:09.658Z,3.96
2017-12-30T07:58:09.706Z,3.97
2017-12-30T07:59:09.635Z,3.98
2017-12-30T08:00:09.607Z,4
2017-12-30T08:01:09.596Z,3.91
2017-12-30T08:02:09.337Z,4.02
2017-12-30T08:03:09.575Z,3.91
2017-12-30T08:04:09.565Z,3.94
2017-12-30T08:05:09.553Z,3.98
2017-12-30T08:06:09.275Z,3.94
2017-12-30T08:07:09.529Z,4.02
2017-12-30T08:08:09.248Z,3.98
2017-12-30T08:09:09.489Z,4
2017-12-30T08:10:09.217Z,4.02
2017-12-30T08:11:09.464Z,4
2017-12-30T08:12:09.458Z,4.08
2017-12-30T08:13:09.429Z,4.2
2017-12-30T08:14:09.423Z,4.2
2017-12-30T08:15:09.413Z,4.12
2017-12-30T08:16:09.395Z,4.11
2017-12-30T08:17:09.388Z,4.2
2017-12-30T08:18:09.367Z,4.14
2017-12-30T08:19:09.348Z,4.16
2017-12-30T08:20:09.333Z,4.2
2017-12-30T08:21:09.326Z,4.26
2017-12-30T08:22:09.056Z,4.33
2017-12-30T08:23:09.029Z,4.24
2017-12-30T08:24:09.289Z,4.37
2017-12-30T08:25:09.263Z,4.29
2017-12-30T08:26:08.989Z,4.3
2017-12-30T08:27:09.233Z,4.29
2017-12-30T08:28:09.002Z,4.36
2017-12-30T08:29:09.214Z,4.37
2017-12-30T08:30:09.191Z,4.37
2017-12-30T08:31:09.223Z,4.47
2017-12-30T08:32:08.910Z,4.5
2017-12-30T08:33:09.148Z,4.48
2017-12-30T08:34:08.891Z,4.45
2017-12-30T08:35:09.143Z,4.5
2017-12-30T08:36:09.126Z,4.69
2017-12-30T08:37:09.114Z,4.59
2017-12-30T08:38:09.086Z,4.65
2017-12-30T08:39:08.825Z,4.66
2017-12-30T08:40:08.812Z,4.66
2017-12-30T08:41:08.789Z,4.78
2017-12-30T08:42:09.036Z,4.66
2017-12-30T08:43:09.025Z,4.72
2017-12-30T08:44:08.756Z,4.78
2017-12-30T08:45:08.995Z,4.73
2017-12-30T08:46:08.727Z,4.69
2017-12-30T08:47:08.957Z,4.78
2017-12-30T08:48:08.702Z,4.69
2017-12-30T08:49:08.944Z,4.77
2017-12-30T08:50:08.919Z,4.91
2017-12-30T08:51:08.920Z,4.88
2017-12-30T08:52:08.902Z,4.89
2017-12-30T08:53:08.900Z,5
2017-12-30T08:54:08.967Z,4.99
2017-12-30T08:55:08.609Z,5.06
2017-12-30T08:56:08.853Z,5.12
2017-12-30T08:57:08.569Z,5.18
2017-12-30T08:58:08.832Z,5.21
2017-12-30T08:59:08.808Z,5.15
2017-12-30T09:00:08.789Z,5.25
2017-12-30T09:01:08.528Z,5.27
2017-12-30T09:02:08.278Z,5.25
2017-12-30T09:03:08.762Z,5.3
2017-12-30T09:04:08.750Z,5.3
2017-12-30T09:05:08.741Z,5.33
2017-12-30T09:06:08.732Z,5.3
2017-12-30T09:07:08.705Z,5.33
2017-12-30T09:08:08.698Z,5.38
2017-12-30T09:09:08.675Z,5.45
2017-12-30T09:10:08.714Z,5.46
2017-12-30T09:11:08.393Z,5.58
2017-12-30T09:12:08.373Z,5.56
2017-12-30T09:13:08.617Z,5.57
2017-12-30T09:14:08.617Z,5.64
2017-12-30T09:15:08.627Z,5.56
2017-12-30T09:16:08.331Z,5.56
2017-12-30T09:17:08.668Z,5.63
2017-12-30T09:18:08.566Z,5.64
2017-12-30T09:19:08.299Z,5.56
2017-12-30T09:20:08.540Z,5.64
2017-12-30T09:21:08.518Z,5.57
2017-12-30T09:22:08.510Z,5.58
2017-12-30T09:23:08.527Z,5.54
2017-12-30T09:24:08.483Z,5.51
2017-12-30T09:25:08.464Z,5.63
2017-12-30T09:26:08.465Z,5.6
2017-12-30T09:27:08.206Z,5.6
2017-12-30T09:28:08.186Z,5.58
2017-12-30T09:29:08.170Z,5.61
2017-12-30T09:30:08.418Z,5.72
2017-12-30T09:31:08.390Z,5.68
2017-12-30T09:32:08.386Z,5.79
2017-12-30T09:33:08.378Z,5.79
2017-12-30T09:34:08.372Z,5.78
2017-12-30T09:35:08.101Z,5.82
2017-12-30T09:36:08.079Z,5.83
2017-12-30T09:37:08.327Z,5.85
2017-12-30T09:38:08.320Z,5.9
2017-12-30T09:39:08.300Z,5.89
2017-12-30T09:40:08.021Z,5.86
2017-12-30T09:41:08.264Z,5.86
2017-12-30T09:42:08.250Z,5.9
2017-12-30T09:43:08.249Z,5.96
2017-12-30T09:44:08.236Z,5.91
2017-12-30T09:45:07.974Z,5.94
2017-12-30T09:46:08.208Z,5.96
2017-12-30T09:47:08.196Z,5.89
2017-12-30T09:48:08.176Z,5.86
2017-12-30T09:49:08.174Z,5.86
2017-12-30T09:50:07.913Z,5.86
2017-12-30T09:51:08.147Z,5.82
2017-12-30T09:52:08.135Z,5.93
2017-12-30T09:53:08.123Z,5.89
2017-12-30T09:54:08.114Z,5.99
2017-12-30T09:55:08.103Z,5.91
2017-12-30T09:56:07.833Z,5.94
2017-12-30T09:57:07.817Z,6.04
2017-12-30T09:58:07.799Z,6
2017-12-30T09:59:08.039Z,6.04
2017-12-30T10:00:07.786Z,5.97
2017-12-30T10:01:08.016Z,6.04
2017-12-30T10:02:08.003Z,6.06
2017-12-30T10:03:07.996Z,6.09
2017-12-30T10:04:07.987Z,6.08
2017-12-30T10:05:07.984Z,6.06
2017-12-30T10:06:07.958Z,6.09
2017-12-30T10:07:07.943Z,6.11
2017-12-30T10:08:07.684Z,6.06
2017-12-30T10:09:07.931Z,6.08
2017-12-30T10:10:07.908Z,6.08
2017-12-30T10:11:07.917Z,6.15
2017-12-30T10:12:07.907Z,6.14
2017-12-30T10:13:07.625Z,6.25
2017-12-30T10:14:07.869Z,6.28
2017-12-30T10:15:07.355Z,6.27
2017-12-30T10:16:07.836Z,6.22
2017-12-30T10:17:07.585Z,6.21
2017-12-30T10:18:07.828Z,6.31
2017-12-30T10:19:07.836Z,6.38
2017-12-30T10:20:07.788Z,6.3
2017-12-30T10:21:07.823Z,6.3
2017-12-30T10:22:07.753Z,6.37
2017-12-30T10:23:07.501Z,6.31
2017-12-30T10:24:07.768Z,6.44
2017-12-30T10:25:07.746Z,6.48
2017-12-30T10:26:07.722Z,6.43
2017-12-30T10:27:07.701Z,6.48
2017-12-30T10:28:07.432Z,6.56
2017-12-30T10:29:07.697Z,6.56
2017-12-30T10:30:07.672Z,6.66
2017-12-30T10:31:07.410Z,6.66
2017-12-30T10:32:07.638Z,6.69
2017-12-30T10:33:07.382Z,6.66
2017-12-30T10:34:07.378Z,6.67
2017-12-30T10:35:07.350Z,6.69
2017-12-30T10:36:07.635Z,6.67
2017-12-30T10:37:07.335Z,6.7
2017-12-30T10:38:07.576Z,6.76
2017-12-30T10:39:07.572Z,6.8
2017-12-30T10:40:07.289Z,6.88
2017-12-30T10:41:07.552Z,6.85
2017-12-30T10:42:07.533Z,6.91
2017-12-30T10:43:07.513Z,6.98
2017-12-30T10:44:07.509Z,7.02
2017-12-30T10:45:07.244Z,6.98
2017-12-30T10:46:07.488Z,6.84
2017-12-30T10:47:07.488Z,6.81
2017-12-30T10:48:07.212Z,6.87
2017-12-30T10:49:07.193Z,6.84
2017-12-30T10:50:06.928Z,6.79
2017-12-30T10:51:07.420Z,6.87
2017-12-30T10:52:07.410Z,6.79
2017-12-30T10:53:07.397Z,6.77
2017-12-30T10:54:07.132Z,6.81
2017-12-30T10:55:07.385Z,6.79
2017-12-30T10:56:07.371Z,6.71
2017-12-30T10:57:06.851Z,6.76
2017-12-30T10:58:07.342Z,6.7
2017-12-30T10:59:07.333Z,6.67
2017-12-30T11:00:07.059Z,6.67
2017-12-30T11:01:07.319Z,6.71
2017-12-30T11:02:07.051Z,6.76
2017-12-30T11:03:07.279Z,6.7
2017-12-30T11:04:07.288Z,6.71
2017-12-30T11:05:07.007Z,6.77
2017-12-30T11:06:06.985Z,6.81
2017-12-30T11:07:07.240Z,6.69
2017-12-30T11:08:06.976Z,6.74
2017-12-30T11:09:07.301Z,6.69
2017-12-30T11:10:07.206Z,6.61
2017-12-30T11:11:07.205Z,6.74
2017-12-30T11:12:07.184Z,6.61
2017-12-30T11:13:07.163Z,6.59
2017-12-30T11:14:06.900Z,6.66
2017-12-30T11:15:07.139Z,6.61
2017-12-30T11:16:07.124Z,6.56
2017-12-30T11:17:07.157Z,6.58
2017-12-30T11:18:07.146Z,6.54
2017-12-30T11:19:07.127Z,6.64
2017-12-30T11:20:07.078Z,6.56
2017-12-30T11:21:07.145Z,6.56
2017-12-30T11:22:06.802Z,6.52
2017-12-30T11:23:07.058Z,6.52
2017-12-30T11:24:07.043Z,6.56
2017-12-30T11:25:07.036Z,6.54
2017-12-30T11:26:07.010Z,6.54
2017-12-30T11:27:06.997Z,6.55
2017-12-30T11:28:06.998Z,6.55
2017-12-30T11:29:06.994Z,6.49
2017-12-30T11:30:06.971Z,6.55
2017-12-30T11:31:06.958Z,6.58
2017-12-30T11:32:06.698Z,6.59
2017-12-30T11:33:06.935Z,6.46
2017-12-30T11:34:06.941Z,6.59
2017-12-30T11:35:06.904Z,6.59
2017-12-30T11:36:06.952Z,6.54
2017-12-30T11:37:06.935Z,6.55
2017-12-30T11:38:06.876Z,6.51
2017-12-30T11:39:06.862Z,6.46
2017-12-30T11:40:06.847Z,6.55
2017-12-30T11:41:06.829Z,6.49
2017-12-30T11:42:06.832Z,6.51
2017-12-30T11:43:06.809Z,6.54
2017-12-30T11:44:06.799Z,6.54
2017-12-30T11:45:06.543Z,6.56
2017-12-30T11:46:06.793Z,6.49
2017-12-30T11:47:06.761Z,6.48
2017-12-30T11:48:06.812Z,6.46
2017-12-30T11:49:06.493Z,6.48
2017-12-30T11:50:06.466Z,6.46
2017-12-30T11:51:06.710Z,6.51
2017-12-30T11:52:06.452Z,6.48
2017-12-30T11:53:06.696Z,6.54
2017-12-30T11:54:06.423Z,6.49
2017-12-30T11:55:06.420Z,6.56
2017-12-30T11:56:06.695Z,6.62
2017-12-30T11:57:06.383Z,6.69
2017-12-30T11:58:06.662Z,6.62
2017-12-30T11:59:06.614Z,6.66
2017-12-30T12:00:06.606Z,6.59
2017-12-30T12:01:06.600Z,6.64
2017-12-30T12:02:06.333Z,6.56
2017-12-30T12:03:06.570Z,6.59
2017-12-30T12:04:06.567Z,6.61
2017-12-30T12:05:06.551Z,6.67
2017-12-30T12:06:06.532Z,6.62
2017-12-30T12:07:06.522Z,6.71
2017-12-30T12:08:06.530Z,6.66
2017-12-30T12:09:06.502Z,6.66
2017-12-30T12:10:06.502Z,6.67
2017-12-30T12:11:06.492Z,6.69
2017-12-30T12:12:06.206Z,6.67
2017-12-30T12:13:06.461Z,6.56
2017-12-30T12:14:06.443Z,6.55
2017-12-30T12:15:06.430Z,6.44
2017-12-30T12:16:06.424Z,6.48
2017-12-30T12:17:06.416Z,6.46
2017-12-30T12:18:06.419Z,6.38
2017-12-30T12:19:06.384Z,6.43
2017-12-30T12:20:06.120Z,6.31
2017-12-30T12:21:06.358Z,6.33
2017-12-30T12:22:06.100Z,6.25
2017-12-30T12:23:06.082Z,6.28
2017-12-30T12:24:06.314Z,6.19
2017-12-30T12:25:05.796Z,6.15
2017-12-30T12:26:06.301Z,6.21
2017-12-30T12:27:06.287Z,6.18
2017-12-30T12:28:06.268Z,6.21
2017-12-30T12:29:06.286Z,6.14
2017-12-30T12:30:06.002Z,6.12
2017-12-30T12:31:05.981Z,6.11
2017-12-30T12:32:05.977Z,6.11
2017-12-30T12:33:05.949Z,6.06
2017-12-30T12:34:06.520Z,6.03
2017-12-30T12:35:06.191Z,6.04
2017-12-30T12:36:06.192Z,5.99
2017-12-30T12:37:05.918Z,5.97
2017-12-30T12:38:06.164Z,5.99
2017-12-30T12:39:06.138Z,5.93
2017-12-30T12:40:06.137Z,6.09
2017-12-30T12:41:06.130Z,6.09
2017-12-30T12:42:06.105Z,6.06
2017-12-30T12:43:06.102Z,6
2017-12-30T12:44:06.072Z,5.97
2017-12-30T12:45:06.071Z,6.06
2017-12-30T12:46:06.066Z,6
2017-12-30T12:47:06.037Z,5.99
2017-12-30T12:48:05.762Z,5.93
2017-12-30T12:49:06.014Z,5.89
2017-12-30T12:50:05.738Z,5.85
2017-12-30T12:51:05.986Z,5.85
2017-12-30T12:52:05.988Z,5.91
2017-12-30T12:53:05.991Z,5.86
2017-12-30T12:54:05.968Z,5.86
2017-12-30T12:55:05.943Z,5.81
2017-12-30T12:56:05.929Z,5.94
2017-12-30T12:57:05.929Z,5.89
2017-12-30T12:58:05.645Z,5.81
2017-12-30T12:59:05.907Z,5.96
2017-12-30T13:00:05.619Z,5.97
2017-12-30T13:01:05.858Z,5.93
2017-12-30T13:02:05.598Z,5.93
2017-12-30T13:03:05.576Z,5.94
2017-12-30T13:04:05.832Z,6
2017-12-30T13:05:05.828Z,5.96
2017-12-30T13:06:05.819Z,5.9
2017-12-30T13:07:05.802Z,5.99
2017-12-30T13:08:05.774Z,6.04
2017-12-30T13:09:05.789Z,6.11
2017-12-30T13:10:05.492Z,6.08
2017-12-30T13:11:05.765Z,6
2017-12-30T13:12:05.732Z,6.08
2017-12-30T13:13:05.720Z,6.06
2017-12-30T13:14:05.448Z,6.04
2017-12-30T13:15:05.685Z,6.12
2017-12-30T13:16:05.685Z,6.12
2017-12-30T13:17:05.663Z,6.15